Time;durP1;ratioP1;P1;durP2;ratioP2;P2;SDS_P1;SDS_P2;PMS_P1;PMS_P2;Temp;Humidity;BMP_temperature;BMP_pressure;BME280_temperature;BME280_humidity;BME280_pressure;Samples;Min_cycle;Max_cycle;Signal;HPM_P1;HPM_P2
2023/03/18 00:01:16;;;;;;;;;43.00;34.67;;;;;0.12;71.17;98663.22;4901611;28;102841;-73
2023/03/18 00:03:44;;;;;;;;;47.00;37.33;;;;;-0.06;73.61;98663.84;4895324;28;103265;-70
2023/03/18 00:06:15;;;;;;;;;34.33;32.33;;;;;-0.12;75.92;98667.03;4896114;28;102449;-70
2023/03/18 00:08:45;;;;;;;;;40.67;30.67;;;;;-0.14;73.37;98660.19;4901596;28;108671;-70
2023/03/18 00:11:14;;;;;;;;;31.00;26.67;;;;;-0.13;73.29;98659.19;4903240;28;102783;-70
2023/03/18 00:13:41;;;;;;;;;58.33;47.00;;;;;-0.28;72.72;98663.19;4896084;28;101993;-71
2023/03/18 00:16:10;;;;;;;;;50.67;44.00;;;;;-0.34;73.30;98669.84;4896875;28;102418;-70
2023/03/18 00:18:39;;;;;;;;;33.00;29.67;;;;;-0.29;75.17;98672.13;4895942;28;103998;-70
2023/03/18 00:21:06;;;;;;;;;35.33;28.67;;;;;-0.23;76.18;98666.28;4900203;28;105047;-70
2023/03/18 00:23:33;;;;;;;;;31.33;20.00;;;;;-0.20;74.73;98661.53;4892104;28;102513;-70
2023/03/18 00:26:01;;;;;;;;;30.00;20.67;;;;;-0.23;74.01;98661.81;4895707;28;102222;-69
2023/03/18 00:28:30;;;;;;;;;49.33;38.33;;;;;-0.25;75.21;98662.91;4888314;28;104050;-70
2023/03/18 00:31:07;;;;;;;;;45.33;38.00;;;;;-0.28;76.73;98658.72;4891234;28;102458;-70
2023/03/18 00:33:39;;;;;;;;;60.67;45.00;;;;;-0.43;75.39;98640.56;4897998;28;102036;-70
2023/03/18 00:36:08;;;;;;;;;63.33;49.67;;;;;-0.31;77.90;98658.09;4894185;28;102064;-70
2023/03/18 00:38:36;;;;;;;;;53.67;44.00;;;;;-0.29;77.95;98651.69;4891605;28;104113;-69
2023/03/18 00:41:10;;;;;;;;;58.33;45.33;;;;;-0.27;77.25;98639.13;4883130;28;102489;-69
2023/03/18 00:43:45;;;;;;;;;54.33;41.00;;;;;-0.21;77.12;98645.72;4889485;28;102308;-69
2023/03/18 00:46:34;;;;;;;;;43.33;35.67;;;;;-0.19;76.56;98630.50;4897447;28;102099;-69
2023/03/18 00:49:04;;;;;;;;;32.33;28.33;;;;;-0.13;76.21;98625.47;4897161;28;108814;-71
2023/03/18 00:51:33;;;;;;;;;52.00;46.00;;;;;-0.22;75.61;98628.94;4897439;28;102415;-69
2023/03/18 00:54:06;;;;;;;;;50.00;43.33;;;;;-0.20;76.43;98627.00;4899708;28;103436;-69
2023/03/18 00:56:36;;;;;;;;;44.67;37.00;;;;;-0.16;75.89;98623.09;4903381;28;101987;-71
2023/03/18 00:59:05;;;;;;;;;43.67;41.00;;;;;-0.28;76.17;98613.53;4890930;28;103881;-69
2023/03/18 01:01:32;;;;;;;;;59.00;45.00;;;;;-0.41;79.57;98623.53;4894605;28;102515;-71
2023/03/18 01:04:00;;;;;;;;;41.67;34.33;;;;;-0.41;75.73;98609.44;4889636;28;102223;-69
2023/03/18 01:06:30;;;;;;;;;34.67;27.00;;;;;-0.36;76.67;98609.88;4891491;28;102045;-70
2023/03/18 01:09:07;;;;;;;;;33.67;24.00;;;;;-0.36;76.37;98610.69;4888310;28;104131;-69
2023/03/18 01:11:57;;;;;;;;;23.67;22.67;;;;;-0.36;75.75;98602.72;4888680;28;102133;-70
2023/03/18 01:14:51;;;;;;;;;41.00;32.33;;;;;-0.28;76.54;98594.94;4896817;28;102406;-71
2023/03/18 01:17:34;;;;;;;;;38.33;29.33;;;;;-0.22;76.79;98594.41;4897505;28;102153;-69
2023/03/18 01:20:10;;;;;;;;;24.00;18.33;;;;;-0.15;75.82;98603.53;4896097;28;104200;-69
2023/03/18 01:23:02;;;;;;;;;30.67;20.33;;;;;-0.16;76.24;98593.88;4894979;28;102205;-69
2023/03/18 01:25:36;;;;;;;;;39.00;31.33;;;;;-0.19;76.13;98594.16;4896580;28;102221;-69
2023/03/18 01:28:04;;;;;;;;;36.67;32.67;;;;;-0.23;75.78;98581.25;4898684;28;102010;-69
2023/03/18 01:30:34;;;;;;;;;40.67;32.33;;;;;-0.21;75.92;98585.47;4907744;28;103998;-69
2023/03/18 01:33:03;;;;;;;;;39.67;33.67;;;;;-0.25;76.16;98578.72;4897646;28;104043;-69
2023/03/18 01:35:31;;;;;;;;;48.33;33.67;;;;;-0.32;77.12;98590.88;4898246;28;102411;-69
2023/03/18 01:37:59;;;;;;;;;37.00;29.33;;;;;-0.25;77.31;98586.69;4895604;28;101954;-69
2023/03/18 01:40:27;;;;;;;;;39.33;33.33;;;;;-0.31;76.57;98587.22;4904424;28;102413;-69
2023/03/18 01:43:13;;;;;;;;;30.67;25.00;;;;;-0.27;75.38;98587.81;4893348;28;102557;-70
2023/03/18 01:45:46;;;;;;;;;22.33;19.67;;;;;-0.23;76.18;98598.06;4889803;28;102532;-69
2023/03/18 01:48:16;;;;;;;;;21.67;12.00;;;;;-0.28;75.35;98579.00;4896706;28;102488;-69
2023/03/18 01:50:46;;;;;;;;;19.33;13.33;;;;;-0.32;75.84;98584.72;4894968;28;104058;-69
2023/03/18 01:53:15;;;;;;;;;17.00;12.33;;;;;-0.36;75.58;98581.47;4887292;28;102189;-69
2023/03/18 01:55:44;;;;;;;;;29.00;23.00;;;;;-0.49;78.01;98580.84;4896288;28;103064;-69
2023/03/18 01:58:21;;;;;;;;;19.33;16.67;;;;;-0.55;78.77;98584.06;4894281;28;103113;-69
2023/03/18 02:00:54;;;;;;;;;26.67;21.67;;;;;-0.70;78.52;98585.34;4893702;28;108812;-69
2023/03/18 02:03:21;;;;;;;;;32.00;27.00;;;;;-0.98;78.58;98558.50;4886588;28;102711;-70
2023/03/18 02:05:50;;;;;;;;;33.33;23.67;;;;;-1.02;79.56;98567.69;4894676;28;102036;-70
2023/03/18 02:08:17;;;;;;;;;26.67;23.00;;;;;-0.88;79.89;98578.94;4883860;28;103378;-69
2023/03/18 02:10:56;;;;;;;;;37.00;29.33;;;;;-0.93;79.80;98566.91;4876581;28;103920;-69
2023/03/18 02:13:48;;;;;;;;;43.33;33.67;;;;;-0.87;78.67;98591.25;4892940;28;102765;-69
2023/03/18 02:16:48;;;;;;;;;42.00;36.67;;;;;-0.91;78.51;98580.91;4884382;28;102256;-71
2023/03/18 02:19:38;;;;;;;;;42.00;35.33;;;;;-0.94;78.82;98581.16;4907244;28;102299;-69
2023/03/18 02:22:26;;;;;;;;;53.33;44.33;;;;;-1.09;80.59;98593.06;4889135;28;107623;-69
2023/03/18 02:25:36;;;;;;;;;48.67;43.33;;;;;-1.21;81.15;98586.13;4896288;28;102270;-71
2023/03/18 02:28:13;;;;;;;;;54.00;46.00;;;;;-1.36;82.80;98584.75;4889852;28;104982;-71
2023/03/18 02:30:47;;;;;;;;;44.67;41.00;;;;;-1.43;83.04;98578.25;4901925;28;102870;-70
2023/03/18 02:33:18;;;;;;;;;47.67;35.67;;;;;-1.51;81.96;98567.47;4894033;28;104228;-69
2023/03/18 02:35:50;;;;;;;;;46.00;39.33;;;;;-1.40;82.86;98578.03;4901309;28;102490;-69
2023/03/18 02:38:17;;;;;;;;;29.00;23.67;;;;;-1.39;81.90;98583.19;4889366;28;110517;-69
2023/03/18 02:40:45;;;;;;;;;25.00;19.33;;;;;-1.38;81.41;98573.44;4894605;28;102449;-70
2023/03/18 02:43:27;;;;;;;;;27.67;24.33;;;;;-1.40;83.21;98580.69;4895057;28;103664;-70
2023/03/18 02:46:28;;;;;;;;;13.33;11.00;;;;;-1.41;82.47;98582.50;4888117;28;103229;-70
2023/03/18 02:48:58;;;;;;;;;32.67;21.33;;;;;-1.43;83.51;98578.25;4896917;28;102042;-70
2023/03/18 02:51:26;;;;;;;;;31.67;23.00;;;;;-1.45;82.97;98567.81;4888163;28;101980;-70
2023/03/18 02:54:02;;;;;;;;;34.67;25.00;;;;;-1.46;83.89;98579.38;4894050;28;104026;-70
2023/03/18 02:56:29;;;;;;;;;35.00;33.33;;;;;-1.48;84.04;98565.38;4891624;28;102390;-69
2023/03/18 02:58:57;;;;;;;;;32.00;25.00;;;;;-1.45;82.84;98574.91;4886139;28;103930;-69
2023/03/18 03:01:24;;;;;;;;;5.00;5.00;;;;;-1.40;82.63;98575.38;4895804;28;102298;-69
2023/03/18 03:03:51;;;;;;;;;29.00;25.33;;;;;-1.45;82.79;98567.81;4901284;28;104009;-69
2023/03/18 03:06:18;;;;;;;;;40.67;34.00;;;;;-1.52;82.39;98573.72;4898085;28;103666;-69
2023/03/18 03:08:46;;;;;;;;;30.00;26.00;;;;;-1.53;83.50;98580.00;4898985;28;103024;-68
2023/03/18 03:11:13;;;;;;;;;37.33;27.67;;;;;-1.52;83.43;98579.03;4896588;28;102421;-68
2023/03/18 03:13:44;;;;;;;;;32.00;23.67;;;;;-1.52;83.63;98584.31;4893982;28;104016;-69
2023/03/18 03:16:12;;;;;;;;;32.00;22.00;;;;;-1.60;83.20;98581.47;4896329;28;102420;-69
2023/03/18 03:18:40;;;;;;;;;43.67;40.00;;;;;-1.70;83.98;98585.81;4889818;28;102352;-69
2023/03/18 03:21:08;;;;;;;;;53.33;42.33;;;;;-1.73;83.96;98581.63;4895422;28;102641;-69
2023/03/18 03:23:36;;;;;;;;;46.33;39.33;;;;;-1.84;83.30;98566.59;4894491;28;104087;-69
2023/03/18 03:26:05;;;;;;;;;45.67;39.00;;;;;-1.72;82.92;98582.47;4896390;28;104126;-70
2023/03/18 03:28:33;;;;;;;;;42.33;35.67;;;;;-1.70;83.20;98585.81;4895222;28;102307;-69
2023/03/18 03:31:00;;;;;;;;;44.67;30.00;;;;;-1.74;82.60;98587.88;4898274;28;102474;-68
2023/03/18 03:33:27;;;;;;;;;37.00;31.00;;;;;-1.80;82.75;98575.13;4900685;28;103752;-69
2023/03/18 03:35:56;;;;;;;;;35.33;27.33;;;;;-1.65;83.49;98579.19;4901874;28;103229;-69
2023/03/18 03:38:25;;;;;;;;;26.33;23.33;;;;;-1.67;84.02;98591.75;4895715;28;102174;-69
2023/03/18 03:40:53;;;;;;;;;26.67;22.67;;;;;-1.67;83.47;98591.75;4898995;28;102379;-70
2023/03/18 03:43:20;;;;;;;;;38.00;28.67;;;;;-1.76;82.65;98596.94;4885118;28;104311;-70
2023/03/18 03:45:47;;;;;;;;;31.67;26.67;;;;;-1.84;84.08;98593.09;4903896;28;102420;-68
2023/03/18 03:48:14;;;;;;;;;34.67;27.00;;;;;-1.89;83.77;98594.44;4899088;28;102469;-69
2023/03/18 03:50:41;;;;;;;;;40.00;32.33;;;;;-2.02;84.91;98597.22;4888484;28;102412;-69
2023/03/18 03:53:09;;;;;;;;;35.67;28.00;;;;;-2.08;86.57;98600.38;4891251;28;104329;-69
2023/03/18 03:55:36;;;;;;;;;28.00;25.67;;;;;-2.02;85.88;98604.31;4897433;28;102293;-69
2023/03/18 03:58:03;;;;;;;;;31.33;25.00;;;;;-1.98;83.91;98605.78;4901757;28;102521;-69
2023/03/18 04:00:31;;;;;;;;;24.33;21.67;;;;;-2.07;84.85;98596.72;4896831;28;102222;-69
2023/03/18 04:02:59;;;;;;;;;56.25;41.50;;;;;-2.22;85.49;98603.28;4891308;28;104621;-69
2023/03/18 04:05:27;;;;;;;;;46.00;36.50;;;;;-2.33;87.53;98592.66;4895823;28;103127;-69
2023/03/18 04:07:54;;;;;;;;;52.67;39.67;;;;;-2.35;87.60;98591.97;4898453;28;102059;-69
2023/03/18 04:10:22;;;;;;;;;32.33;26.33;;;;;-2.27;86.93;98592.19;4894941;28;102325;-69
2023/03/18 04:12:49;;;;;;;;;51.75;43.25;;;;;-2.29;86.20;98599.41;4893328;28;104044;-69
2023/03/18 04:15:18;;;;;;;;;54.75;42.25;;;;;-2.37;87.83;98586.78;4899287;28;103622;-69
2023/03/18 04:17:45;;;;;;;;;49.25;41.75;;;;;-2.39;89.44;98588.72;4900042;28;102275;-69
2023/03/18 04:20:13;;;;;;;;;33.33;28.00;;;;;-2.31;87.47;98591.59;4891463;28;103415;-69
2023/03/18 04:22:40;;;;;;;;;32.00;27.00;;;;;-2.25;87.13;98588.44;4896461;28;103826;-70
2023/03/18 04:25:15;;;;;;;;;39.33;35.33;;;;;-2.26;86.16;98593.88;4893676;28;102783;-70
2023/03/18 04:27:43;;;;;;;;;44.67;38.67;;;;;-2.31;87.17;98591.59;4894266;28;102393;-69
2023/03/18 04:30:11;;;;;;;;;36.75;27.25;;;;;-2.37;87.69;98593.88;4897589;28;102027;-69
2023/03/18 04:32:38;;;;;;;;;43.67;32.67;;;;;-2.33;87.45;98592.66;4897426;28;104166;-69
2023/03/18 04:35:06;;;;;;;;;31.00;29.00;;;;;-2.43;86.65;98581.94;4886559;28;102693;-69
2023/03/18 04:37:35;;;;;;;;;40.00;31.67;;;;;-2.37;86.68;98596.53;4893725;28;102513;-70
2023/03/18 04:40:05;;;;;;;;;26.67;23.67;;;;;-2.28;86.61;98603.75;4868947;28;101902;-69
2023/03/18 04:42:32;;;;;;;;;35.00;29.00;;;;;-2.29;86.68;98599.41;4894875;28;104023;-70
2023/03/18 04:44:59;;;;;;;;;41.67;32.67;;;;;-2.39;89.24;98598.47;4895295;28;102711;-69
2023/03/18 04:47:27;;;;;;;;;40.33;29.67;;;;;-2.41;87.78;98603.88;4890169;28;101916;-69
2023/03/18 04:49:54;;;;;;;;;40.67;29.00;;;;;-2.46;88.63;98592.78;4913100;28;103234;-70
2023/03/18 04:52:20;;;;;;;;;19.00;11.00;;;;;-2.42;87.64;98598.69;4905662;28;110547;-70
2023/03/18 04:54:48;;;;;;;;;28.00;24.67;;;;;-2.42;86.91;98593.38;4898711;28;102668;-71
2023/03/18 04:57:15;;;;;;;;;48.33;36.33;;;;;-2.46;88.01;98599.88;4902224;28;102510;-70
2023/03/18 04:59:44;;;;;;;;;61.50;46.25;;;;;-2.55;88.26;98587.38;4897956;28;102079;-70
2023/03/18 05:02:11;;;;;;;;;58.25;45.00;;;;;-2.56;87.61;98580.38;4900026;28;104016;-69
2023/03/18 05:04:38;;;;;;;;;53.00;43.00;;;;;-2.36;86.70;98604.34;4904910;28;102291;-69
2023/03/18 05:07:05;;;;;;;;;48.67;38.67;;;;;-2.26;86.94;98602.69;4902780;28;102331;-69
2023/03/18 05:09:33;;;;;;;;;41.25;35.25;;;;;-2.23;87.55;98598.94;4903728;28;102516;-69
2023/03/18 05:12:00;;;;;;;;;59.75;44.00;;;;;-2.22;88.14;98595.31;4902999;28;104399;-69
2023/03/18 05:14:27;;;;;;;;;53.67;35.67;;;;;-2.13;88.73;98604.34;4896629;28;102449;-70
2023/03/18 05:16:54;;;;;;;;;26.00;20.67;;;;;-2.04;89.01;98601.81;4903468;28;102554;-69
2023/03/18 05:19:22;;;;;;;;;39.00;35.67;;;;;-2.02;87.20;98601.66;4901945;28;102454;-69
2023/03/18 05:21:49;;;;;;;;;33.00;29.00;;;;;-1.93;86.64;98611.53;4899267;28;104079;-70
2023/03/18 05:24:16;;;;;;;;;26.33;22.33;;;;;-1.89;87.98;98605.84;4900661;28;103469;-70
2023/03/18 05:26:43;;;;;;;;;34.33;28.33;;;;;-1.84;87.25;98609.00;4895217;28;102472;-70
2023/03/18 05:29:10;;;;;;;;;26.00;20.67;;;;;-1.76;87.68;98612.84;4898935;28;102950;-70
2023/03/18 05:31:37;;;;;;;;;25.33;22.33;;;;;-1.68;87.10;98613.06;4904331;28;104013;-70
2023/03/18 05:34:06;;;;;;;;;34.67;24.33;;;;;-1.66;86.81;98619.91;4904549;28;102652;-70
2023/03/18 05:36:32;;;;;;;;;23.00;16.00;;;;;-1.62;86.66;98601.97;4906789;28;102631;-71
2023/03/18 05:39:00;;;;;;;;;23.00;21.67;;;;;-1.49;85.47;98613.25;4897181;28;102559;-70
2023/03/18 05:41:27;;;;;;;;;22.33;19.67;;;;;-1.35;84.97;98605.81;4898091;28;104143;-69
2023/03/18 05:43:53;;;;;;;;;13.00;10.00;;;;;-1.20;84.65;98618.78;4903844;28;103034;-70
2023/03/18 05:46:21;;;;;;;;;16.33;14.00;;;;;-1.09;84.01;98611.66;4904016;28;102303;-70
2023/03/18 05:48:48;;;;;;;;;11.00;9.00;;;;;-0.99;82.95;98612.53;4901371;28;102481;-70
2023/03/18 05:51:15;;;;;;;;;16.00;11.67;;;;;-0.92;82.72;98621.69;4896208;28;103938;-70
2023/03/18 05:53:42;;;;;;;;;23.33;21.33;;;;;-0.95;82.78;98600.72;4882304;28;102308;-69
2023/03/18 05:56:11;;;;;;;;;31.33;24.33;;;;;-0.71;81.17;98616.38;4900291;28;102299;-70
2023/03/18 05:58:39;;;;;;;;;23.33;22.00;;;;;-0.56;80.80;98619.53;4899333;28;103808;-70
2023/03/18 06:01:06;;;;;;;;;24.00;19.00;;;;;-0.48;80.75;98617.06;4901487;28;104013;-70
2023/03/18 06:03:34;;;;;;;;;30.67;25.33;;;;;-0.38;79.46;98619.78;4894619;28;102386;-71
2023/03/18 06:06:02;;;;;;;;;30.67;25.33;;;;;-0.22;79.30;98628.94;4897169;28;102050;-71
2023/03/18 06:08:29;;;;;;;;;28.33;23.33;;;;;-0.08;79.72;98623.25;4894825;28;102369;-69
2023/03/18 06:10:56;;;;;;;;;29.33;22.00;;;;;0.04;79.12;98636.47;4910075;28;103954;-69
2023/03/18 06:13:23;;;;;;;;;33.33;31.00;;;;;0.18;76.92;98633.44;4897800;28;103217;-70
2023/03/18 06:15:56;;;;;;;;;38.67;29.67;;;;;0.32;77.64;98631.22;4906887;28;104447;-70
2023/03/18 06:18:23;;;;;;;;;36.67;27.00;;;;;0.39;76.77;98627.06;4902669;28;102743;-70
2023/03/18 06:20:51;;;;;;;;;23.67;19.00;;;;;0.61;75.21;98630.44;4901862;28;108482;-70
2023/03/18 06:23:18;;;;;;;;;23.33;21.33;;;;;0.78;74.98;98633.28;4902804;28;103720;-70
2023/03/18 06:25:45;;;;;;;;;28.33;22.00;;;;;0.89;74.60;98625.16;4900793;28;103433;-71
2023/03/18 06:28:12;;;;;;;;;17.33;13.00;;;;;1.09;73.12;98630.47;4893470;28;102087;-68
2023/03/18 06:30:39;;;;;;;;;16.00;13.00;;;;;1.26;73.80;98632.44;4901170;28;104058;-70
2023/03/18 06:33:08;;;;;;;;;15.67;12.67;;;;;1.43;72.45;98634.38;4883284;28;104948;-69
2023/03/18 06:35:35;;;;;;;;;11.33;9.33;;;;;1.62;71.99;98638.84;4897327;28;103164;-68
2023/03/18 06:38:03;;;;;;;;;9.67;8.33;;;;;1.77;71.22;98638.22;4898170;28;102476;-71
2023/03/18 06:40:30;;;;;;;;;8.67;8.00;;;;;1.99;70.41;98638.84;4897952;28;104169;-68
2023/03/18 06:42:57;;;;;;;;;2.75;2.00;;;;;2.45;69.12;98638.75;4890304;28;102435;-69
2023/03/18 06:45:24;;;;;;;;;8.25;8.00;;;;;2.86;66.05;98639.19;4898314;28;102332;-69
2023/03/18 06:47:52;;;;;;;;;12.00;10.50;;;;;3.02;63.41;98604.63;4890671;28;102457;-69
2023/03/18 06:50:19;;;;;;;;;18.67;15.67;;;;;3.42;64.38;98631.69;4900355;28;104273;-70
2023/03/18 06:52:47;;;;;;;;;17.25;14.50;;;;;3.60;64.74;98637.84;4910283;28;102724;-70
2023/03/18 06:55:14;;;;;;;;;14.00;13.75;;;;;3.77;64.38;98638.81;4903135;28;102380;-70
2023/03/18 06:57:41;;;;;;;;;40.33;31.67;;;;;3.90;61.95;98643.72;4907566;28;102470;-70
2023/03/18 07:00:09;;;;;;;;;23.33;21.33;;;;;4.07;63.33;98655.34;4896884;28;105045;-71
2023/03/18 07:02:36;;;;;;;;;20.00;20.00;;;;;4.23;62.46;98650.94;4891369;28;102550;-69
2023/03/18 07:05:06;;;;;;;;;23.25;16.75;;;;;4.43;60.31;98646.16;4891853;28;102740;-68
2023/03/18 07:07:36;;;;;;;;;17.50;15.75;;;;;4.63;60.32;98663.66;4896331;28;102349;-68
2023/03/18 07:10:08;;;;;;;;;15.00;12.00;;;;;4.77;59.62;98670.25;4899153;28;103989;-69
2023/03/18 07:12:35;;;;;;;;;12.25;11.00;;;;;4.86;59.17;98663.91;4897919;28;102033;-69
2023/03/18 07:15:02;;;;;;;;;20.25;14.75;;;;;4.98;58.51;98670.63;4895376;28;102488;-70
2023/03/18 07:17:29;;;;;;;;;11.50;9.00;;;;;5.11;57.36;98667.47;4900673;28;102163;-70
2023/03/18 07:19:56;;;;;;;;;10.75;7.50;;;;;5.22;57.58;98670.66;4898709;28;103996;-72
2023/03/18 07:22:23;;;;;;;;;13.50;11.50;;;;;5.33;57.46;98666.81;4898295;28;102385;-69
2023/03/18 07:24:51;;;;;;;;;12.25;12.25;;;;;5.39;56.98;98682.25;4882375;28;102473;-70
2023/03/18 07:27:18;;;;;;;;;11.50;8.00;;;;;5.47;57.10;98673.34;4892571;28;102357;-69
2023/03/18 07:29:45;;;;;;;;;6.25;5.50;;;;;5.55;57.23;98681.41;4894080;28;104003;-70
2023/03/18 07:32:12;;;;;;;;;8.00;7.00;;;;;5.51;57.16;98670.19;4900443;28;102646;-70
2023/03/18 07:34:40;;;;;;;;;10.00;7.00;;;;;5.61;56.77;98686.94;4896033;28;102594;-69
2023/03/18 07:37:07;;;;;;;;;8.00;7.50;;;;;5.69;56.69;98678.06;4902475;28;102361;-70
2023/03/18 07:39:34;;;;;;;;;10.50;9.25;;;;;5.70;56.48;98663.63;4904591;28;104005;-72
2023/03/18 07:42:01;;;;;;;;;8.00;6.25;;;;;5.79;56.17;98673.34;4896810;28;103430;-72
2023/03/18 07:44:28;;;;;;;;;31.25;22.00;;;;;5.62;55.98;98677.91;4903128;28;102281;-70
2023/03/18 07:46:58;;;;;;;;;30.00;26.25;;;;;5.52;56.33;98676.38;4907103;28;102157;-71
2023/03/18 07:49:26;;;;;;;;;29.25;23.50;;;;;5.68;55.88;98677.22;4873265;28;107927;-72
2023/03/18 07:51:53;;;;;;;;;22.50;19.25;;;;;5.94;54.93;98666.34;4896935;28;102400;-69
2023/03/18 07:54:20;;;;;;;;;17.50;15.75;;;;;6.18;54.31;98677.00;4892145;28;102231;-70
2023/03/18 07:56:47;;;;;;;;;21.75;21.00;;;;;6.20;53.32;98672.31;4896931;28;102559;-69
2023/03/18 07:59:14;;;;;;;;;20.00;18.25;;;;;6.41;53.56;98673.59;4884746;28;104136;-70
2023/03/18 08:01:44;;;;;;;;;18.00;15.75;;;;;6.66;53.26;98677.88;4899356;28;103330;-69
2023/03/18 08:04:11;;;;;;;;;8.75;4.00;;;;;6.91;51.95;98674.06;4889973;28;105829;-70
2023/03/18 08:06:39;;;;;;;;;11.75;9.50;;;;;7.05;49.32;98677.84;4890236;28;102325;-70
2023/03/18 08:09:06;;;;;;;;;10.75;7.75;;;;;7.20;49.52;98676.09;4895044;28;105570;-69
2023/03/18 08:11:33;;;;;;;;;10.00;9.00;;;;;7.27;48.24;98670.81;4890597;28;102382;-70
2023/03/18 08:14:00;;;;;;;;;10.75;9.75;;;;;7.49;46.54;98669.97;4906016;28;102797;-70
2023/03/18 08:16:28;;;;;;;;;7.75;7.50;;;;;7.65;47.65;98672.56;4913218;28;102590;-69
2023/03/18 08:18:55;;;;;;;;;8.25;8.00;;;;;7.88;47.42;98675.22;4908915;28;104211;-69
2023/03/18 08:21:22;;;;;;;;;14.25;9.50;;;;;8.04;47.45;98669.66;4906929;28;102400;-69
2023/03/18 08:23:49;;;;;;;;;12.25;10.00;;;;;8.14;46.56;98669.41;4900065;28;102495;-69
2023/03/18 08:26:17;;;;;;;;;13.00;9.00;;;;;8.09;44.33;98643.03;4900276;28;102088;-70
2023/03/18 08:28:44;;;;;;;;;12.00;9.75;;;;;8.41;45.24;98666.13;4896856;28;103643;-70
2023/03/18 08:31:14;;;;;;;;;13.75;11.75;;;;;8.45;44.42;98662.88;4898449;28;102597;-69
2023/03/18 08:33:42;;;;;;;;;8.00;8.00;;;;;8.57;44.07;98652.44;4897841;28;102313;-69
2023/03/18 08:36:09;;;;;;;;;10.75;9.00;;;;;8.83;44.25;98663.56;4887088;28;102629;-69
2023/03/18 08:38:36;;;;;;;;;16.75;11.25;;;;;8.90;42.89;98663.66;4886458;28;104156;-69
2023/03/18 08:41:03;;;;;;;;;20.50;15.00;;;;;8.88;43.65;98658.44;4896021;28;102028;-69
2023/03/18 08:43:30;;;;;;;;;15.00;11.75;;;;;8.87;41.50;98667.53;4894142;28;102202;-69
2023/03/18 08:45:57;;;;;;;;;16.75;16.00;;;;;8.79;40.10;98664.13;4897879;28;102017;-69
2023/03/18 08:48:24;;;;;;;;;24.75;21.00;;;;;8.28;42.99;98660.50;4889825;28;104187;-69
2023/03/18 08:50:52;;;;;;;;;15.50;15.00;;;;;8.63;42.12;98664.34;4896779;28;102646;-68
2023/03/18 08:53:19;;;;;;;;;19.75;14.50;;;;;8.71;41.18;98670.47;4901783;28;102292;-70
2023/03/18 08:55:47;;;;;;;;;10.25;10.00;;;;;8.95;41.34;98662.06;4901128;28;102514;-69
2023/03/18 08:58:14;;;;;;;;;9.50;8.00;;;;;9.18;41.34;98656.53;4900216;28;103972;-70
2023/03/18 09:00:41;;;;;;;;;6.50;5.00;;;;;9.43;39.92;98658.84;4897327;28;102479;-70
2023/03/18 09:03:09;;;;;;;;;7.25;7.00;;;;;9.57;39.85;98655.25;4901967;28;102022;-70
2023/03/18 09:05:37;;;;;;;;;10.25;7.75;;;;;9.67;38.99;98653.91;4894579;28;102641;-70
2023/03/18 09:08:05;;;;;;;;;11.25;8.00;;;;;9.74;40.12;98653.94;4893121;28;104024;-70
2023/03/18 09:10:32;;;;;;;;;11.25;9.00;;;;;9.72;38.08;98662.25;4891934;28;103510;-69
2023/03/18 09:12:59;;;;;;;;;14.50;9.75;;;;;9.76;37.81;98652.75;4895489;28;102218;-70
2023/03/18 09:15:26;;;;;;;;;8.75;6.50;;;;;9.85;37.10;98658.84;4907856;28;102311;-70
2023/03/18 09:17:53;;;;;;;;;8.00;7.00;;;;;9.99;37.58;98648.97;4887682;28;108598;-69
2023/03/18 09:20:37;;;;;;;;;7.25;7.25;;;;;10.05;37.17;98658.97;4899900;28;101960;-70
2023/03/18 09:23:05;;;;;;;;;5.00;5.00;;;;;10.16;37.99;98655.78;4889738;28;102214;-71
2023/03/18 09:25:32;;;;;;;;;8.75;5.00;;;;;10.31;39.25;98652.97;4892682;28;102437;-70
2023/03/18 09:28:00;;;;;;;;;7.50;7.00;;;;;10.41;37.62;98645.31;4896398;28;104158;-70
2023/03/18 09:30:27;;;;;;;;;9.75;9.75;;;;;10.44;37.09;98643.09;4894141;28;101906;-70
2023/03/18 09:32:55;;;;;;;;;9.00;8.00;;;;;10.47;37.04;98648.06;4901626;28;102499;-69
2023/03/18 09:35:23;;;;;;;;;8.50;5.75;;;;;10.61;38.03;98652.53;4899152;28;102524;-70
2023/03/18 09:37:52;;;;;;;;;10.00;9.00;;;;;10.71;35.75;98642.19;4901711;28;103687;-70
2023/03/18 09:40:31;;;;;;;;;9.00;6.75;;;;;10.86;35.31;98643.88;4881815;28;102187;-70
2023/03/18 09:43:14;;;;;;;;;5.50;3.50;;;;;10.96;35.16;98638.94;4897118;28;102165;-70
2023/03/18 09:46:16;;;;;;;;;7.00;6.25;;;;;11.15;34.83;98649.00;4903315;28;102518;-70
2023/03/18 09:49:20;;;;;;;;;19.75;18.75;;;;;10.86;36.68;98638.47;4896829;28;109046;-69
2023/03/18 09:52:10;;;;;;;;;12.50;11.00;;;;;11.10;35.71;98635.25;4895602;28;109327;-70
2023/03/18 09:54:41;;;;;;;;;11.25;10.00;;;;;11.10;36.60;98619.84;4895196;28;102454;-68
2023/03/18 09:57:18;;;;;;;;;8.25;8.00;;;;;11.36;35.27;98632.59;4904296;28;102289;-70
2023/03/18 09:59:53;;;;;;;;;8.00;7.00;;;;;11.52;34.69;98636.81;4895205;28;104044;-71
2023/03/18 10:02:35;;;;;;;;;12.75;10.00;;;;;11.59;34.26;98627.66;4895454;28;102611;-70
2023/03/18 10:05:15;;;;;;;;;10.50;9.75;;;;;11.74;34.83;98624.78;4892824;28;103100;-70
2023/03/18 10:07:43;;;;;;;;;9.00;7.50;;;;;11.76;33.71;98621.84;4888220;28;102653;-69
2023/03/18 10:10:32;;;;;;;;;10.00;8.00;;;;;11.76;33.86;98619.97;4903823;28;103074;-69
2023/03/18 10:13:18;;;;;;;;;10.00;7.25;;;;;11.91;32.66;98623.31;4885892;28;102265;-69
2023/03/18 10:15:51;;;;;;;;;9.00;7.00;;;;;12.04;32.06;98622.47;4888453;28;104926;-69
2023/03/18 10:18:29;;;;;;;;;6.00;5.00;;;;;12.11;31.61;98628.75;4906039;28;102316;-69
2023/03/18 10:21:05;;;;;;;;;9.00;6.50;;;;;12.19;32.56;98622.25;4904285;28;109080;-70
2023/03/18 10:24:01;;;;;;;;;5.25;4.00;;;;;12.27;33.08;98617.44;4902654;28;102361;-69
2023/03/18 10:26:32;;;;;;;;;8.75;8.25;;;;;12.43;32.30;98624.28;4896152;28;102105;-68
2023/03/18 10:29:34;;;;;;;;;6.50;5.25;;;;;12.45;32.09;98622.19;4895841;28;102386;-70
2023/03/18 10:32:17;;;;;;;;;11.25;10.00;;;;;12.43;30.45;98622.41;4887874;28;108837;-70
2023/03/18 10:35:20;;;;;;;;;6.25;6.25;;;;;12.59;31.62;98620.28;4898620;28;102433;-69
2023/03/18 10:37:58;;;;;;;;;8.50;7.00;;;;;12.55;31.80;98611.75;4868851;28;102071;-69
2023/03/18 10:40:27;;;;;;;;;6.00;5.00;;;;;12.69;30.88;98609.81;4899124;28;102272;-71
2023/03/18 10:42:55;;;;;;;;;10.75;8.00;;;;;12.73;29.56;98621.91;4891901;28;104001;-69
2023/03/18 10:45:26;;;;;;;;;7.00;7.00;;;;;12.64;30.42;98612.34;4895547;28;102439;-68
2023/03/18 10:48:09;;;;;;;;;7.00;5.50;;;;;12.73;30.79;98606.47;4891727;28;102161;-69
2023/03/18 10:50:52;;;;;;;;;11.75;11.50;;;;;12.53;29.77;98598.38;4899709;28;102294;-69
2023/03/18 10:53:28;;;;;;;;;11.75;8.50;;;;;12.70;30.37;98604.16;4895943;28;103656;-69
2023/03/18 10:56:05;;;;;;;;;11.75;9.75;;;;;12.70;28.83;98596.03;4902486;28;102291;-69
2023/03/18 10:58:32;;;;;;;;;12.00;10.50;;;;;12.72;28.59;98610.22;4902386;28;102122;-70
2023/03/18 11:01:00;;;;;;;;;5.50;5.50;;;;;12.82;28.51;98610.59;4897626;28;102331;-69
2023/03/18 11:03:31;;;;;;;;;11.75;8.50;;;;;12.88;29.10;98598.03;4890601;28;109212;-69
2023/03/18 11:06:03;;;;;;;;;5.50;5.00;;;;;13.05;30.00;98599.22;4890314;28;101956;-69
2023/03/18 11:08:36;;;;;;;;;6.00;5.75;;;;;13.21;28.49;98597.91;4880495;28;102052;-69
2023/03/18 11:11:34;;;;;;;;;10.00;9.75;;;;;13.31;27.65;98596.38;4891675;28;102122;-70
2023/03/18 11:14:04;;;;;;;;;7.50;6.25;;;;;13.49;28.51;98589.38;4894167;28;108780;-70
2023/03/18 11:16:49;;;;;;;;;6.00;6.00;;;;;13.65;29.03;98588.81;4891061;28;102932;-70
2023/03/18 11:19:37;;;;;;;;;7.00;6.00;;;;;13.75;26.62;98586.44;4900116;28;103016;-69
2023/03/18 11:22:24;;;;;;;;;6.00;5.25;;;;;13.91;27.09;98583.19;4898952;28;102485;-69
2023/03/18 11:25:13;;;;;;;;;7.25;5.00;;;;;13.99;26.95;98591.06;4902991;28;104201;-69
2023/03/18 11:27:45;;;;;;;;;8.00;8.00;;;;;13.99;27.67;98595.66;4894314;28;102506;-68
2023/03/18 11:30:22;;;;;;;;;7.25;6.25;;;;;14.00;25.91;98576.41;4882982;28;102200;-69
2023/03/18 11:33:09;;;;;;;;;6.00;6.00;;;;;14.22;27.55;98585.81;4892885;28;102315;-68